createdAt,value
2023-02-16T00:00:46.473Z,79.10
2023-02-16T00:03:16.849Z,79.20
2023-02-16T00:05:44.450Z,79.20
2023-02-16T00:08:12.108Z,79.20
2023-02-16T00:10:40.263Z,79.20
2023-02-16T00:13:47.998Z,79.10
2023-02-16T00:16:21.459Z,79.30
2023-02-16T00:18:49.323Z,79.40
2023-02-16T00:21:17.110Z,79.40
2023-02-16T00:23:44.863Z,79.40
2023-02-16T00:26:23.982Z,79.30
2023-02-16T00:29:00.155Z,79.30
2023-02-16T00:31:32.222Z,79.40
2023-02-16T00:34:04.934Z,79.40
2023-02-16T00:36:32.361Z,79.50
2023-02-16T00:38:59.814Z,79.50
2023-02-16T00:41:46.104Z,79.40
2023-02-16T00:44:17.681Z,79.50
2023-02-16T00:46:46.361Z,79.60
2023-02-16T00:49:15.219Z,79.50
2023-02-16T00:51:43.243Z,79.50
2023-02-16T00:54:11.033Z,79.30
2023-02-16T00:56:39.439Z,79.10
2023-02-16T00:59:13.331Z,79.10
2023-02-16T01:01:40.862Z,79.10
2023-02-16T01:04:15.559Z,79.20
2023-02-16T01:07:01.504Z,79.10
2023-02-16T01:09:47.339Z,79.00
2023-02-16T01:12:18.316Z,79.00
2023-02-16T01:14:50.101Z,79.00
2023-02-16T01:17:17.603Z,79.10
2023-02-16T01:19:44.986Z,79.10
2023-02-16T01:22:12.511Z,79.10
2023-02-16T01:24:40.088Z,79.10
2023-02-16T01:27:12.450Z,79.10
2023-02-16T01:29:39.897Z,79.00
2023-02-16T01:32:14.822Z,79.10
2023-02-16T01:34:42.619Z,79.10
2023-02-16T01:37:16.071Z,79.00
2023-02-16T01:39:44.718Z,79.00
2023-02-16T01:42:30.104Z,79.00
2023-02-16T01:45:04.021Z,78.90
2023-02-16T01:47:38.022Z,78.90
2023-02-16T01:50:39.983Z,79.00
2023-02-16T01:53:29.049Z,79.00
2023-02-16T01:56:03.179Z,78.90
2023-02-16T01:58:35.975Z,78.90
2023-02-16T02:01:05.046Z,79.00
2023-02-16T02:03:53.744Z,79.00
2023-02-16T02:06:32.929Z,79.00
2023-02-16T02:09:13.542Z,78.90
2023-02-16T02:11:54.539Z,79.10
2023-02-16T02:14:28.784Z,79.10
2023-02-16T02:17:00.709Z,79.10
2023-02-16T02:19:38.633Z,79.10
2023-02-16T02:23:02.396Z,79.10
2023-02-16T02:26:06.909Z,79.20
2023-02-16T02:28:55.714Z,79.30
2023-02-16T02:31:33.669Z,79.40
2023-02-16T02:34:25.131Z,79.40
2023-02-16T02:37:10.524Z,79.40
2023-02-16T02:40:02.088Z,79.50
2023-02-16T02:42:37.186Z,79.50
2023-02-16T02:45:13.554Z,79.40
2023-02-16T02:47:44.142Z,79.50
2023-02-16T02:50:38.917Z,79.40
2023-02-16T02:53:15.791Z,79.60
2023-02-16T02:56:06.886Z,79.50
2023-02-16T02:58:55.222Z,79.60
2023-02-16T03:01:23.957Z,79.70
2023-02-16T03:03:55.989Z,79.70
2023-02-16T03:06:37.402Z,79.80
2023-02-16T03:09:11.568Z,79.80
2023-02-16T03:11:58.210Z,79.90
2023-02-16T03:14:32.230Z,79.80
2023-02-16T03:17:20.822Z,79.80
2023-02-16T03:20:09.608Z,79.80
2023-02-16T03:22:57.115Z,79.70
2023-02-16T03:25:47.544Z,79.70
2023-02-16T03:28:36.607Z,79.70
2023-02-16T03:31:06.305Z,79.70
2023-02-16T03:33:35.080Z,79.70
2023-02-16T03:36:03.961Z,79.80
2023-02-16T03:38:31.934Z,79.70
2023-02-16T03:40:59.470Z,79.80
2023-02-16T03:43:28.736Z,79.90
2023-02-16T03:45:56.259Z,80.00
2023-02-16T03:48:23.877Z,80.10
2023-02-16T03:50:51.337Z,80.20
2023-02-16T03:53:19.090Z,80.30
2023-02-16T03:55:48.674Z,80.40
2023-02-16T03:58:20.379Z,81.20
2023-02-16T04:00:48.250Z,80.40
2023-02-16T04:03:16.022Z,80.50
2023-02-16T04:05:44.272Z,80.50
2023-02-16T04:08:11.892Z,80.60
2023-02-16T04:10:39.816Z,80.60
2023-02-16T04:13:07.602Z,80.70
2023-02-16T04:15:35.140Z,80.70
2023-02-16T04:18:02.867Z,80.70
2023-02-16T04:20:32.880Z,80.90
2023-02-16T04:23:01.020Z,80.80
2023-02-16T04:25:29.484Z,80.80
2023-02-16T04:27:56.887Z,80.80
2023-02-16T04:30:27.627Z,80.70
2023-02-16T04:32:55.184Z,80.70
2023-02-16T04:35:23.036Z,80.60
2023-02-16T04:37:50.482Z,80.60
2023-02-16T04:40:18.352Z,80.60
2023-02-16T04:42:46.642Z,80.50
2023-02-16T04:45:14.142Z,80.50
2023-02-16T04:47:42.019Z,80.50
2023-02-16T04:50:10.844Z,80.40
2023-02-16T04:52:38.616Z,80.30
2023-02-16T04:55:09.593Z,80.30
2023-02-16T04:57:39.105Z,80.50
2023-02-16T05:00:08.279Z,80.10
2023-02-16T05:02:35.667Z,80.00
2023-02-16T05:05:03.018Z,79.90
2023-02-16T05:07:30.666Z,79.80
2023-02-16T05:09:57.928Z,79.80
2023-02-16T05:12:44.159Z,79.60
2023-02-16T05:15:11.605Z,79.60
2023-02-16T05:17:38.849Z,79.70
2023-02-16T05:20:07.175Z,79.60
2023-02-16T05:22:35.461Z,79.60
2023-02-16T05:25:02.653Z,79.50
2023-02-16T05:27:31.276Z,79.40
2023-02-16T05:29:59.298Z,79.40
2023-02-16T05:32:27.018Z,79.40
2023-02-16T05:34:54.205Z,79.40
2023-02-16T05:37:21.670Z,79.30
2023-02-16T05:39:49.035Z,79.20
2023-02-16T05:42:16.430Z,79.10
2023-02-16T05:44:43.802Z,79.10
2023-02-16T05:47:11.317Z,79.10
2023-02-16T05:49:38.680Z,79.10
2023-02-16T05:52:06.130Z,79.00
2023-02-16T05:54:33.785Z,79.00
2023-02-16T05:57:01.189Z,79.10
2023-02-16T05:59:28.698Z,79.10
2023-02-16T06:01:56.132Z,79.10
2023-02-16T06:04:23.553Z,79.10
2023-02-16T06:06:50.971Z,79.30
2023-02-16T06:09:18.339Z,79.40
2023-02-16T06:11:45.911Z,79.40
2023-02-16T06:14:17.025Z,79.50
2023-02-16T06:16:47.300Z,79.50
2023-02-16T06:19:16.469Z,79.40
2023-02-16T06:21:44.511Z,79.40
2023-02-16T06:24:13.403Z,79.30
2023-02-16T06:26:41.291Z,79.30
2023-02-16T06:29:09.708Z,79.40
2023-02-16T06:31:37.444Z,79.40
2023-02-16T06:34:05.568Z,79.40
2023-02-16T06:36:33.279Z,79.40
2023-02-16T06:39:00.672Z,79.50
2023-02-16T06:41:31.531Z,79.40
2023-02-16T06:44:00.604Z,79.40
2023-02-16T06:46:28.639Z,79.40
2023-02-16T06:48:56.271Z,79.40
2023-02-16T06:51:23.855Z,79.50
2023-02-16T06:53:51.243Z,79.50
2023-02-16T06:56:18.766Z,79.70
2023-02-16T06:58:46.230Z,79.80
2023-02-16T07:01:13.842Z,79.80
2023-02-16T07:03:41.397Z,79.70
2023-02-16T07:06:08.850Z,79.60
2023-02-16T07:08:36.493Z,79.60
2023-02-16T07:11:04.571Z,79.50
2023-02-16T07:13:36.394Z,79.40
2023-02-16T07:16:05.377Z,79.30
2023-02-16T07:18:33.508Z,79.30
2023-02-16T07:21:01.779Z,79.30
2023-02-16T07:23:29.630Z,79.30
2023-02-16T07:25:57.000Z,79.20
2023-02-16T07:28:25.598Z,79.20
2023-02-16T07:30:53.006Z,79.10
2023-02-16T07:33:21.227Z,79.10
2023-02-16T07:35:50.132Z,79.20
2023-02-16T07:38:17.793Z,79.20
2023-02-16T07:40:45.180Z,79.30
2023-02-16T07:43:12.696Z,79.40
2023-02-16T07:45:40.145Z,79.50
2023-02-16T07:48:07.974Z,79.50
2023-02-16T07:50:38.558Z,79.60
2023-02-16T07:53:05.925Z,79.40
2023-02-16T07:55:38.398Z,79.30
2023-02-16T07:58:06.426Z,79.20
2023-02-16T08:00:34.376Z,79.10
2023-02-16T08:03:03.182Z,79.00
2023-02-16T08:05:30.646Z,79.10
2023-02-16T08:07:57.980Z,79.00
2023-02-16T08:10:25.596Z,79.10
2023-02-16T08:12:53.329Z,79.00
2023-02-16T08:15:20.768Z,78.90
2023-02-16T08:17:48.302Z,78.80
2023-02-16T08:20:15.763Z,78.80
2023-02-16T08:22:43.592Z,78.50
2023-02-16T08:25:11.706Z,78.50
2023-02-16T08:27:39.390Z,78.00
2023-02-16T08:30:12.553Z,77.60
2023-02-16T08:32:40.545Z,77.10
2023-02-16T08:35:08.540Z,77.10
2023-02-16T08:37:38.837Z,76.80
2023-02-16T08:40:08.760Z,76.60
2023-02-16T08:42:37.725Z,76.70
2023-02-16T08:45:06.595Z,76.50
2023-02-16T08:47:34.781Z,76.50
2023-02-16T08:50:02.495Z,76.30
2023-02-16T08:52:30.587Z,76.30
2023-02-16T08:54:57.957Z,75.90
2023-02-16T08:57:25.469Z,75.40
2023-02-16T09:00:12.836Z,75.20
2023-02-16T09:02:40.238Z,75.00
2023-02-16T09:05:07.839Z,74.60
2023-02-16T09:07:35.291Z,74.30
2023-02-16T09:10:04.311Z,74.30
2023-02-16T09:12:35.209Z,74.00
2023-02-16T09:15:03.083Z,73.80
2023-02-16T09:17:30.868Z,74.00
2023-02-16T09:19:58.233Z,73.70
2023-02-16T09:22:25.778Z,73.60
2023-02-16T09:24:53.246Z,73.50
2023-02-16T09:27:20.642Z,73.60
2023-02-16T09:29:49.842Z,73.80
2023-02-16T09:32:17.430Z,73.90
2023-02-16T09:34:44.908Z,73.70
2023-02-16T09:37:12.154Z,74.40
2023-02-16T09:39:39.388Z,73.90
2023-02-16T09:42:30.616Z,73.80
2023-02-16T09:45:13.632Z,73.60
2023-02-16T09:47:46.176Z,73.40
2023-02-16T09:50:52.234Z,73.30
2023-02-16T09:53:42.717Z,73.10
2023-02-16T09:56:19.564Z,73.10
2023-02-16T09:59:10.675Z,73.30
2023-02-16T10:01:46.106Z,73.30
2023-02-16T10:04:24.261Z,73.50
2023-02-16T10:06:58.315Z,73.10
2023-02-16T10:09:29.508Z,72.90
2023-02-16T10:12:19.420Z,72.70
2023-02-16T10:14:54.149Z,72.70
2023-02-16T10:17:29.151Z,72.90
2023-02-16T10:20:14.426Z,73.10
2023-02-16T10:23:00.964Z,73.30
2023-02-16T10:25:44.287Z,73.50
2023-02-16T10:28:28.933Z,73.40
2023-02-16T10:31:15.716Z,73.30
2023-02-16T10:34:00.523Z,73.50
2023-02-16T10:36:53.382Z,73.50
2023-02-16T10:39:39.558Z,73.50
2023-02-16T10:42:34.405Z,73.70
2023-02-16T10:45:27.228Z,74.10
2023-02-16T10:47:55.006Z,73.50
2023-02-16T10:50:31.346Z,73.00
2023-02-16T10:53:04.120Z,72.70
2023-02-16T10:55:31.581Z,72.40
2023-02-16T10:58:01.674Z,72.30
2023-02-16T11:00:51.724Z,72.50
2023-02-16T11:03:29.861Z,72.70
2023-02-16T11:06:12.421Z,73.20
2023-02-16T11:08:51.852Z,73.20
2023-02-16T11:11:22.668Z,73.40
2023-02-16T11:13:57.992Z,73.90
2023-02-16T11:16:27.229Z,74.00
2023-02-16T11:19:08.766Z,73.80
2023-02-16T11:21:56.026Z,74.00
2023-02-16T11:24:36.342Z,73.10
2023-02-16T11:27:13.839Z,72.00
2023-02-16T11:29:41.506Z,72.50
2023-02-16T11:32:11.179Z,72.50
2023-02-16T11:34:48.016Z,72.50
2023-02-16T11:37:33.850Z,71.90
2023-02-16T11:40:09.346Z,71.80
2023-02-16T11:42:51.178Z,71.40
2023-02-16T11:45:31.845Z,71.00
2023-02-16T11:48:13.864Z,71.20
2023-02-16T11:51:03.515Z,71.60
2023-02-16T11:53:33.703Z,72.30
2023-02-16T11:56:28.878Z,72.90
2023-02-16T11:59:24.389Z,71.70
2023-02-16T12:01:54.672Z,71.50
2023-02-16T12:04:51.126Z,71.60
2023-02-16T12:08:13.887Z,71.90
2023-02-16T12:11:09.215Z,72.50
2023-02-16T12:13:59.537Z,72.90
2023-02-16T12:16:43.543Z,72.50
2023-02-16T12:19:53.550Z,72.50
2023-02-16T12:22:47.458Z,72.10
2023-02-16T12:25:26.854Z,72.10
2023-02-16T12:28:18.623Z,72.00
2023-02-16T12:30:58.606Z,72.00
2023-02-16T12:34:01.423Z,72.20
2023-02-16T12:36:46.094Z,72.20
2023-02-16T12:39:26.284Z,72.10
2023-02-16T12:42:30.638Z,72.30
2023-02-16T12:45:04.779Z,72.50
2023-02-16T12:47:37.482Z,72.20
2023-02-16T12:50:18.217Z,72.30
2023-02-16T12:52:54.620Z,72.30
2023-02-16T12:55:31.095Z,72.30
2023-02-16T12:58:16.282Z,72.40
2023-02-16T13:00:52.364Z,72.40
2023-02-16T13:03:19.752Z,72.50
2023-02-16T13:06:10.885Z,72.50
2023-02-16T13:09:09.934Z,72.30
2023-02-16T13:11:48.208Z,72.40
2023-02-16T13:14:26.277Z,72.50
2023-02-16T13:17:04.321Z,72.30
2023-02-16T13:19:32.255Z,72.60
2023-02-16T13:22:18.302Z,72.70
2023-02-16T13:24:50.979Z,72.70
2023-02-16T13:27:42.057Z,72.50
2023-02-16T13:30:43.098Z,72.50
2023-02-16T13:33:37.364Z,72.70
2023-02-16T13:36:33.965Z,72.90
2023-02-16T13:39:39.182Z,72.40
2023-02-16T13:42:40.135Z,72.40
2023-02-16T13:45:19.846Z,73.00
2023-02-16T13:47:49.968Z,72.80
2023-02-16T13:50:22.266Z,72.10
2023-02-16T13:52:52.572Z,73.20
2023-02-16T13:55:41.123Z,73.20
2023-02-16T13:58:14.430Z,73.00
2023-02-16T14:00:47.472Z,72.70
2023-02-16T14:03:21.002Z,72.50
2023-02-16T14:06:12.254Z,72.70
2023-02-16T14:08:39.865Z,72.70
2023-02-16T14:11:09.834Z,73.10
2023-02-16T14:13:39.065Z,73.10
2023-02-16T14:16:06.944Z,73.10
2023-02-16T14:19:12.418Z,72.90
2023-02-16T14:21:46.005Z,73.00
2023-02-16T14:24:25.638Z,73.40
2023-02-16T14:27:05.794Z,73.60
2023-02-16T14:29:37.768Z,73.20
2023-02-16T14:32:16.876Z,73.00
2023-02-16T14:34:57.469Z,73.10
2023-02-16T14:37:30.555Z,73.40
2023-02-16T14:40:21.052Z,73.30
2023-02-16T14:42:55.457Z,73.00
2023-02-16T14:46:03.875Z,72.90
2023-02-16T14:48:47.690Z,72.80
2023-02-16T14:51:33.409Z,72.70
2023-02-16T14:54:37.189Z,72.90
2023-02-16T14:57:07.718Z,73.00
2023-02-16T14:59:50.520Z,73.10
2023-02-16T15:02:28.481Z,73.20
2023-02-16T15:04:56.830Z,73.00
2023-02-16T15:07:27.891Z,72.90
2023-02-16T15:09:58.449Z,72.80
2023-02-16T15:12:39.217Z,72.90
2023-02-16T15:15:13.387Z,72.80
2023-02-16T15:17:45.161Z,72.60
2023-02-16T15:20:34.219Z,72.40
2023-02-16T15:23:07.342Z,72.40
2023-02-16T15:25:42.028Z,72.50
2023-02-16T15:28:12.317Z,72.70
2023-02-16T15:30:55.514Z,72.90
2023-02-16T15:33:25.652Z,73.00
2023-02-16T15:35:56.929Z,73.00
2023-02-16T15:38:33.339Z,73.20
2023-02-16T15:41:07.613Z,73.10
2023-02-16T15:43:43.799Z,73.10
2023-02-16T15:46:34.127Z,73.20
2023-02-16T15:49:32.830Z,73.20
2023-02-16T15:52:01.133Z,73.10
2023-02-16T15:54:31.859Z,73.10
2023-02-16T15:57:01.317Z,73.10
2023-02-16T15:59:37.315Z,73.00
2023-02-16T16:02:04.821Z,73.10
2023-02-16T16:04:38.426Z,73.10
2023-02-16T16:07:08.321Z,73.10
2023-02-16T16:09:36.668Z,73.20
2023-02-16T16:12:08.280Z,73.10
2023-02-16T16:14:41.326Z,73.10
2023-02-16T16:17:14.350Z,73.00
2023-02-16T16:19:41.731Z,73.00
2023-02-16T16:22:28.872Z,73.10
2023-02-16T16:24:56.448Z,73.10
2023-02-16T16:27:36.501Z,73.10
2023-02-16T16:30:12.713Z,73.10
2023-02-16T16:32:40.446Z,73.00
2023-02-16T16:35:39.007Z,73.10
2023-02-16T16:38:20.364Z,73.10
2023-02-16T16:40:56.630Z,73.10
2023-02-16T16:43:37.494Z,73.20
2023-02-16T16:46:23.351Z,73.30
2023-02-16T16:48:59.993Z,73.40
2023-02-16T16:51:40.534Z,73.50
2023-02-16T16:54:31.542Z,73.60
2023-02-16T16:56:58.984Z,73.70
2023-02-16T16:59:26.327Z,73.90
2023-02-16T17:01:53.928Z,73.90
2023-02-16T17:04:22.136Z,74.20
2023-02-16T17:06:49.634Z,74.20
2023-02-16T17:09:17.043Z,74.30
2023-02-16T17:11:44.428Z,74.40
2023-02-16T17:14:19.824Z,74.50
2023-02-16T17:16:50.719Z,74.70
2023-02-16T17:19:20.473Z,74.70
2023-02-16T17:21:48.581Z,74.80
2023-02-16T17:24:16.354Z,74.30
2023-02-16T17:26:44.012Z,75.10
2023-02-16T17:29:11.506Z,75.10
2023-02-16T17:31:38.987Z,75.20
2023-02-16T17:34:06.316Z,75.20
2023-02-16T17:36:34.578Z,75.20
2023-02-16T17:39:01.945Z,75.10
2023-02-16T17:41:29.829Z,75.10
2023-02-16T17:43:57.271Z,75.10
2023-02-16T17:46:26.642Z,75.10
2023-02-16T17:48:55.257Z,75.10
2023-02-16T17:51:24.890Z,75.20
2023-02-16T17:53:52.448Z,75.30
2023-02-16T17:56:23.117Z,75.40
2023-02-16T17:58:51.325Z,75.40
2023-02-16T18:01:20.709Z,75.50
2023-02-16T18:03:48.832Z,75.40
2023-02-16T18:06:18.500Z,75.50
2023-02-16T18:08:46.157Z,75.50
2023-02-16T18:11:13.775Z,75.50
2023-02-16T18:13:41.048Z,75.60
2023-02-16T18:16:10.828Z,75.60
2023-02-16T18:18:39.311Z,75.60
2023-02-16T18:21:07.312Z,75.60
2023-02-16T18:23:34.732Z,75.50
2023-02-16T18:26:02.402Z,75.50
2023-02-16T18:28:32.071Z,75.40
2023-02-16T18:31:00.721Z,75.40
2023-02-16T18:33:29.746Z,75.30
2023-02-16T18:35:57.619Z,75.30
2023-02-16T18:38:27.051Z,75.20
2023-02-16T18:40:55.423Z,75.20
2023-02-16T18:43:23.156Z,75.20
2023-02-16T18:45:50.761Z,75.20
2023-02-16T18:48:18.435Z,75.20
2023-02-16T18:50:46.080Z,75.30
2023-02-16T18:53:13.762Z,75.20
2023-02-16T18:55:41.229Z,75.20
2023-02-16T18:58:11.285Z,75.20
2023-02-16T19:00:39.142Z,75.30
2023-02-16T19:03:07.434Z,75.40
2023-02-16T19:05:34.951Z,75.40
2023-02-16T19:08:02.365Z,75.60
2023-02-16T19:10:30.281Z,75.50
2023-02-16T19:12:57.793Z,75.40
2023-02-16T19:15:25.269Z,75.40
2023-02-16T19:17:52.729Z,75.40
2023-02-16T19:20:20.341Z,75.50
2023-02-16T19:22:49.001Z,75.50
2023-02-16T19:25:16.540Z,75.80
2023-02-16T19:27:44.532Z,75.80
2023-02-16T19:30:12.724Z,75.80
2023-02-16T19:32:43.164Z,75.80
2023-02-16T19:35:11.554Z,75.60
2023-02-16T19:37:39.316Z,75.60
2023-02-16T19:40:08.908Z,76.40
2023-02-16T19:42:37.278Z,75.50
2023-02-16T19:45:05.084Z,75.50
2023-02-16T19:47:32.484Z,75.50
2023-02-16T19:49:59.986Z,75.50
2023-02-16T19:52:27.641Z,75.60
2023-02-16T19:54:55.274Z,75.70
2023-02-16T19:57:22.858Z,75.60
2023-02-16T19:59:50.532Z,75.80
2023-02-16T20:02:18.031Z,75.90
2023-02-16T20:04:45.667Z,76.20
2023-02-16T20:07:13.052Z,76.00
2023-02-16T20:09:40.580Z,75.90
2023-02-16T20:12:08.147Z,76.00
2023-02-16T20:14:35.438Z,76.00
2023-02-16T20:17:02.860Z,76.00
2023-02-16T20:19:30.140Z,76.10
2023-02-16T20:21:57.625Z,76.00
2023-02-16T20:24:24.844Z,75.80
2023-02-16T20:26:52.229Z,75.80
2023-02-16T20:29:20.841Z,75.70
2023-02-16T20:31:58.249Z,75.70
2023-02-16T20:34:27.391Z,75.60
2023-02-16T20:36:55.236Z,75.50
2023-02-16T20:39:23.064Z,75.70
2023-02-16T20:41:50.742Z,76.40
2023-02-16T20:44:17.966Z,75.70
2023-02-16T20:46:45.426Z,75.80
2023-02-16T20:49:13.433Z,75.80
2023-02-16T20:51:41.214Z,75.80
2023-02-16T20:54:09.064Z,75.70
2023-02-16T20:56:36.569Z,75.70
2023-02-16T20:59:04.650Z,75.70
2023-02-16T21:01:38.358Z,75.60
2023-02-16T21:04:07.581Z,75.70
2023-02-16T21:06:36.166Z,75.80
2023-02-16T21:09:05.098Z,75.80
2023-02-16T21:11:32.481Z,75.90
2023-02-16T21:13:59.735Z,75.80
2023-02-16T21:16:27.146Z,75.80
2023-02-16T21:18:54.719Z,75.80
2023-02-16T21:21:23.813Z,75.90
2023-02-16T21:23:53.450Z,76.00
2023-02-16T21:26:22.965Z,75.90
2023-02-16T21:28:50.920Z,76.10
2023-02-16T21:31:22.191Z,76.10
2023-02-16T21:33:49.916Z,76.20
2023-02-16T21:36:23.728Z,76.20
2023-02-16T21:38:51.897Z,76.20
2023-02-16T21:41:26.368Z,76.20
2023-02-16T21:44:07.597Z,76.20
2023-02-16T21:46:37.256Z,76.30
2023-02-16T21:49:14.569Z,76.20
2023-02-16T21:51:43.313Z,76.30
2023-02-16T21:54:14.493Z,76.40
2023-02-16T21:56:50.210Z,76.30
2023-02-16T21:59:19.482Z,76.10
2023-02-16T22:01:50.921Z,75.80
2023-02-16T22:04:21.828Z,75.80
2023-02-16T22:06:50.659Z,75.70
2023-02-16T22:09:20.911Z,75.70
2023-02-16T22:11:49.589Z,75.70
2023-02-16T22:14:17.594Z,75.70
2023-02-16T22:16:46.689Z,75.70
2023-02-16T22:19:16.215Z,75.80
2023-02-16T22:21:45.137Z,75.70
2023-02-16T22:24:14.221Z,75.70
2023-02-16T22:26:42.009Z,75.70
2023-02-16T22:29:10.406Z,75.50
2023-02-16T22:31:38.293Z,75.50
2023-02-16T22:34:11.383Z,75.50
2023-02-16T22:36:38.993Z,75.50
2023-02-16T22:39:07.027Z,75.50
2023-02-16T22:41:35.218Z,75.40
2023-02-16T22:44:02.604Z,75.40
2023-02-16T22:46:30.568Z,75.60
2023-02-16T22:48:59.067Z,75.70
2023-02-16T22:51:30.207Z,75.70
2023-02-16T22:53:58.806Z,75.80
2023-02-16T22:56:29.826Z,75.80
2023-02-16T22:58:58.862Z,75.80
2023-02-16T23:01:28.472Z,75.70
2023-02-16T23:03:57.800Z,75.60
2023-02-16T23:06:27.961Z,75.50
2023-02-16T23:08:57.898Z,75.40
2023-02-16T23:11:26.198Z,75.30
2023-02-16T23:13:54.143Z,75.20
2023-02-16T23:16:24.050Z,75.30
2023-02-16T23:18:51.517Z,75.30
2023-02-16T23:21:20.648Z,75.30
2023-02-16T23:23:49.711Z,75.30
2023-02-16T23:26:18.754Z,75.30
2023-02-16T23:28:49.627Z,75.20
2023-02-16T23:31:17.158Z,75.10
2023-02-16T23:33:44.786Z,75.00
2023-02-16T23:36:12.313Z,74.90
2023-02-16T23:38:39.792Z,75.00
2023-02-16T23:41:11.659Z,74.80
2023-02-16T23:43:39.060Z,74.70
2023-02-16T23:46:07.084Z,74.50
2023-02-16T23:48:34.657Z,74.50
2023-02-16T23:51:02.145Z,74.50
2023-02-16T23:53:29.786Z,74.50
2023-02-16T23:56:07.244Z,74.50
2023-02-16T23:58:37.550Z,74.40
